createdAt,value
2018-10-07T00:00:11.403Z,54.13
2018-10-07T00:02:40.462Z,53.70
2018-10-07T00:05:08.916Z,53.60
2018-10-07T00:07:37.349Z,54.37
2018-10-07T00:10:05.881Z,54.23
2018-10-07T00:12:34.322Z,54.00
2018-10-07T00:15:02.818Z,53.97
2018-10-07T00:17:31.230Z,57.80
2018-10-07T00:19:59.657Z,52.93
2018-10-07T00:22:28.203Z,55.37
2018-10-07T00:24:56.644Z,53.13
2018-10-07T00:27:25.122Z,56.03
2018-10-07T00:29:53.632Z,55.77
2018-10-07T00:32:22.086Z,56.03
2018-10-07T00:34:50.550Z,53.33
2018-10-07T00:37:19.073Z,52.10
2018-10-07T00:39:47.500Z,47.83
2018-10-07T00:42:15.957Z,48.73
2018-10-07T00:44:44.506Z,47.13
2018-10-07T00:47:12.993Z,45.30
2018-10-07T00:49:41.479Z,45.20
2018-10-07T00:52:09.979Z,44.13
2018-10-07T00:54:38.452Z,42.50
2018-10-07T00:57:07.022Z,39.57
2018-10-07T00:59:35.453Z,34.30
2018-10-07T01:02:04.006Z,33.53
2018-10-07T01:04:32.454Z,32.73
2018-10-07T01:07:00.912Z,33.10
2018-10-07T01:09:29.450Z,30.83
2018-10-07T01:11:57.914Z,26.93
2018-10-07T01:14:26.426Z,27.07
2018-10-07T01:16:54.875Z,28.07
2018-10-07T01:19:23.343Z,20.93
2018-10-07T01:21:51.785Z,20.17
2018-10-07T01:24:20.439Z,18.93
2018-10-07T01:26:49.016Z,18.37
2018-10-07T01:29:17.470Z,18.43
2018-10-07T01:31:45.911Z,18.77
2018-10-07T01:34:14.510Z,18.60
2018-10-07T01:36:43.033Z,17.67
2018-10-07T01:39:12.260Z,17.73
2018-10-07T01:41:40.869Z,17.50
2018-10-07T01:44:09.433Z,16.13
2018-10-07T01:46:38.026Z,18.20
2018-10-07T01:49:06.551Z,16.70
2018-10-07T01:51:34.995Z,16.13
2018-10-07T01:54:03.567Z,17.53
2018-10-07T01:56:32.122Z,16.50
2018-10-07T01:59:00.712Z,15.07
2018-10-07T02:01:29.133Z,15.27
2018-10-07T02:03:57.584Z,15.73
2018-10-07T02:06:26.044Z,15.70
2018-10-07T02:08:54.462Z,14.10
2018-10-07T02:11:22.903Z,13.60
2018-10-07T02:13:51.457Z,14.13
2018-10-07T02:16:20.202Z,12.73
2018-10-07T02:18:48.678Z,11.53
2018-10-07T02:21:17.142Z,12.67
2018-10-07T02:23:45.585Z,11.07
2018-10-07T02:26:14.148Z,11.03
2018-10-07T02:28:42.726Z,10.60
2018-10-07T02:31:11.385Z,10.80
2018-10-07T02:33:39.826Z,10.90
2018-10-07T02:36:08.320Z,8.93
2018-10-07T02:38:38.198Z,9.23
2018-10-07T02:41:06.856Z,8.40
2018-10-07T02:43:35.442Z,8.57
2018-10-07T02:46:04.040Z,8.60
2018-10-07T02:48:32.532Z,8.90
2018-10-07T02:51:01.207Z,8.27
2018-10-07T02:53:29.823Z,8.00
2018-10-07T02:55:58.405Z,7.97
2018-10-07T02:58:27.791Z,8.73
2018-10-07T03:00:56.888Z,6.97
2018-10-07T03:03:25.520Z,6.47
2018-10-07T03:05:54.067Z,7.10
2018-10-07T03:08:22.642Z,7.33
2018-10-07T03:10:51.318Z,6.27
2018-10-07T03:13:19.813Z,5.57
2018-10-07T03:15:48.429Z,5.10
2018-10-07T03:18:16.912Z,5.50
2018-10-07T03:20:45.356Z,6.07
2018-10-07T03:23:13.830Z,5.93
2018-10-07T03:25:42.394Z,6.03
2018-10-07T03:28:10.868Z,5.63
2018-10-07T03:30:39.290Z,5.40
2018-10-07T03:33:07.738Z,5.40
2018-10-07T03:35:36.162Z,5.47
2018-10-07T03:38:04.660Z,6.10
2018-10-07T03:40:33.377Z,6.20
2018-10-07T03:43:01.800Z,6.10
2018-10-07T03:45:30.254Z,5.53
2018-10-07T03:47:58.830Z,6.00
2018-10-07T03:50:27.254Z,6.00
2018-10-07T03:52:55.778Z,6.70
2018-10-07T03:55:24.252Z,6.40
2018-10-07T03:57:52.688Z,5.90
2018-10-07T04:00:21.243Z,6.20
2018-10-07T04:02:49.706Z,6.57
2018-10-07T04:05:18.324Z,6.67
2018-10-07T04:07:46.879Z,6.20
2018-10-07T04:10:15.370Z,5.20
2018-10-07T04:12:43.862Z,4.93
2018-10-07T04:15:12.288Z,4.60
2018-10-07T04:17:40.720Z,4.67
2018-10-07T04:20:09.142Z,4.57
2018-10-07T04:22:37.558Z,5.07
2018-10-07T04:25:06.216Z,5.23
2018-10-07T04:27:34.634Z,5.60
2018-10-07T04:30:03.085Z,4.67
2018-10-07T04:32:31.558Z,4.83
2018-10-07T04:34:59.957Z,3.90
2018-10-07T04:37:28.477Z,4.33
2018-10-07T04:39:57.046Z,4.80
2018-10-07T04:42:25.417Z,4.73
2018-10-07T04:44:53.981Z,5.10
2018-10-07T04:47:22.567Z,5.93
2018-10-07T04:49:51.069Z,7.60
2018-10-07T04:52:19.513Z,7.57
2018-10-07T04:54:47.990Z,7.17
2018-10-07T04:57:16.533Z,6.70
2018-10-07T04:59:45.941Z,6.60
2018-10-07T05:02:14.439Z,5.77
2018-10-07T05:04:42.991Z,5.27
2018-10-07T05:07:11.615Z,6.43
2018-10-07T05:09:40.131Z,6.93
2018-10-07T05:12:09.495Z,7.40
2018-10-07T05:14:38.348Z,7.70
2018-10-07T05:17:07.078Z,7.40
2018-10-07T05:19:35.623Z,6.13
2018-10-07T05:22:04.207Z,6.30
2018-10-07T05:24:32.712Z,5.77
2018-10-07T05:27:01.282Z,7.77
2018-10-07T05:29:29.709Z,7.83
2018-10-07T05:31:58.159Z,7.47
2018-10-07T05:34:26.826Z,8.80
2018-10-07T05:36:55.356Z,7.73
2018-10-07T05:39:23.800Z,7.77
2018-10-07T05:41:52.350Z,7.00
2018-10-07T05:44:20.803Z,8.00
2018-10-07T05:46:49.275Z,7.70
2018-10-07T05:49:17.728Z,8.00
2018-10-07T05:51:46.206Z,7.60
2018-10-07T05:54:14.669Z,6.23
2018-10-07T05:56:43.137Z,5.70
2018-10-07T05:59:11.781Z,6.03
2018-10-07T06:01:41.907Z,6.07
2018-10-07T06:04:20.396Z,5.93
2018-10-07T06:06:49.021Z,5.43
2018-10-07T06:09:24.659Z,5.30
2018-10-07T06:11:53.629Z,6.07
2018-10-07T06:14:43.821Z,6.67
2018-10-07T06:17:13.797Z,6.17
2018-10-07T06:19:42.290Z,6.47
2018-10-07T06:22:10.890Z,6.63
2018-10-07T06:24:39.416Z,5.50
2018-10-07T06:27:07.946Z,6.30
2018-10-07T06:29:36.503Z,5.83
2018-10-07T06:32:05.183Z,6.03
2018-10-07T06:34:33.762Z,6.13
2018-10-07T06:37:02.393Z,6.73
2018-10-07T06:39:30.992Z,5.87
2018-10-07T06:41:59.583Z,5.80
2018-10-07T06:44:28.683Z,5.10
2018-10-07T06:46:57.208Z,4.97
2018-10-07T06:49:25.729Z,3.90
2018-10-07T06:51:54.347Z,3.70
2018-10-07T06:54:22.929Z,3.17
2018-10-07T06:56:51.593Z,2.53
2018-10-07T06:59:20.054Z,3.60
2018-10-07T07:01:49.499Z,3.10
2018-10-07T07:04:18.180Z,3.13
2018-10-07T07:06:46.658Z,2.93
2018-10-07T07:09:15.100Z,3.33
2018-10-07T07:11:43.534Z,2.80
2018-10-07T07:14:12.232Z,2.47
2018-10-07T07:16:40.764Z,2.10
2018-10-07T07:19:09.220Z,2.10
2018-10-07T07:21:37.858Z,3.00
2018-10-07T07:24:06.460Z,2.40
2018-10-07T07:26:35.147Z,2.20
2018-10-07T07:29:03.732Z,2.00
2018-10-07T07:31:32.269Z,1.90
2018-10-07T07:34:01.406Z,2.13
2018-10-07T07:36:30.076Z,1.97
2018-10-07T07:38:58.684Z,2.27
2018-10-07T07:41:27.350Z,2.10
2018-10-07T07:43:55.906Z,2.00
2018-10-07T07:46:24.438Z,2.17
2018-10-07T07:48:52.943Z,2.17
2018-10-07T07:51:21.462Z,1.87
2018-10-07T07:53:50.118Z,2.10
2018-10-07T07:56:18.972Z,2.17
2018-10-07T07:58:47.535Z,2.10
2018-10-07T08:01:16.779Z,2.10
2018-10-07T08:03:45.747Z,2.17
2018-10-07T08:06:14.201Z,2.43
2018-10-07T08:08:42.704Z,2.17
2018-10-07T08:11:12.062Z,1.80
2018-10-07T08:13:40.520Z,2.10
2018-10-07T08:16:09.197Z,1.83
2018-10-07T08:18:37.677Z,1.83
2018-10-07T08:21:06.145Z,1.80
2018-10-07T08:23:34.776Z,1.83
2018-10-07T08:26:03.413Z,1.60
2018-10-07T08:28:31.948Z,1.77
2018-10-07T08:31:00.590Z,1.60
2018-10-07T08:33:29.133Z,2.20
2018-10-07T08:35:57.596Z,1.87
2018-10-07T08:38:26.139Z,1.67
2018-10-07T08:40:54.579Z,1.60
2018-10-07T08:43:23.096Z,1.43
2018-10-07T08:45:51.943Z,1.50
2018-10-07T08:48:20.550Z,1.50
2018-10-07T08:50:49.003Z,1.53
2018-10-07T08:53:17.492Z,1.47
2018-10-07T08:55:46.520Z,1.60
2018-10-07T08:58:15.409Z,1.80
2018-10-07T09:00:43.881Z,1.80
2018-10-07T09:03:12.352Z,2.10
2018-10-07T09:05:40.840Z,1.90
2018-10-07T09:08:09.291Z,2.30
2018-10-07T09:10:37.915Z,2.10
2018-10-07T09:13:06.509Z,1.70
2018-10-07T09:15:35.317Z,1.77
2018-10-07T09:18:03.836Z,1.50
2018-10-07T09:20:32.366Z,1.40
2018-10-07T09:23:00.827Z,1.70
2018-10-07T09:25:29.327Z,1.73
2018-10-07T09:27:59.348Z,1.90
2018-10-07T09:30:29.099Z,1.33
2018-10-07T09:32:57.924Z,2.20
2018-10-07T09:35:26.344Z,1.87
2018-10-07T09:37:55.758Z,1.70
2018-10-07T09:40:24.289Z,1.50
2018-10-07T09:42:52.741Z,1.40
2018-10-07T09:45:21.329Z,1.50
2018-10-07T09:47:49.850Z,1.47
2018-10-07T09:50:18.438Z,1.50
2018-10-07T09:52:47.052Z,1.50
2018-10-07T09:55:15.639Z,1.60
2018-10-07T09:57:44.105Z,1.70
2018-10-07T10:00:12.698Z,1.20
2018-10-07T10:02:41.234Z,1.20
2018-10-07T10:05:09.705Z,1.17
2018-10-07T10:07:38.158Z,1.20
2018-10-07T10:10:06.651Z,1.43
2018-10-07T10:12:35.423Z,1.30
2018-10-07T10:15:04.125Z,1.60
2018-10-07T10:17:33.680Z,1.67
2018-10-07T10:20:04.820Z,1.73
2018-10-07T10:24:49.494Z,1.70
2018-10-07T10:28:26.425Z,1.50
2018-10-07T10:31:03.274Z,1.70
2018-10-07T10:33:35.488Z,1.30
2018-10-07T10:36:44.409Z,1.50
2018-10-07T10:39:21.060Z,1.20
2018-10-07T10:42:09.107Z,1.60
2018-10-07T10:44:46.685Z,1.80
2018-10-07T10:47:30.476Z,1.57
2018-10-07T10:52:15.034Z,1.57
2018-10-07T10:55:28.431Z,1.30
2018-10-07T11:14:56.947Z,1.50
2018-10-07T11:17:30.185Z,1.40
2018-10-07T11:20:25.233Z,1.37
2018-10-07T11:23:18.034Z,1.43
2018-10-07T11:25:57.349Z,1.27
2018-10-07T11:28:34.274Z,1.57
2018-10-07T11:33:29.173Z,1.97
2018-10-07T11:36:08.254Z,1.40
2018-10-07T11:39:17.930Z,1.70
2018-10-07T11:41:51.248Z,1.40
2018-10-07T11:44:31.191Z,1.30
2018-10-07T11:48:09.689Z,1.40
2018-10-07T11:52:56.475Z,1.50
2018-10-07T11:55:26.374Z,1.37
2018-10-07T11:57:55.159Z,1.40
2018-10-07T12:00:24.509Z,1.30
2018-10-07T12:02:53.249Z,1.47
2018-10-07T12:05:21.756Z,1.30
2018-10-07T12:07:50.278Z,1.53
2018-10-07T12:10:23.559Z,1.40
2018-10-07T12:12:52.392Z,1.40
2018-10-07T12:15:21.050Z,1.40
2018-10-07T12:17:49.937Z,1.77
2018-10-07T12:20:18.639Z,1.27
2018-10-07T12:22:47.345Z,1.50
2018-10-07T12:25:15.780Z,1.30
2018-10-07T12:27:44.605Z,1.73
2018-10-07T12:30:13.116Z,1.30
2018-10-07T12:32:41.812Z,1.40
2018-10-07T12:35:10.656Z,1.40
2018-10-07T12:37:39.104Z,1.50
2018-10-07T12:40:07.682Z,1.30
2018-10-07T12:49:24.032Z,1.50
2018-10-07T12:51:52.537Z,1.47
2018-10-07T12:54:21.090Z,1.70
2018-10-07T12:56:49.819Z,1.40
2018-10-07T12:59:18.585Z,1.43
2018-10-07T13:02:03.531Z,1.70
2018-10-07T13:04:32.469Z,1.30
2018-10-07T13:07:01.667Z,1.63
2018-10-07T13:09:31.034Z,1.40
2018-10-07T13:11:59.744Z,1.30
2018-10-07T13:14:28.420Z,1.60
2018-10-07T13:16:57.065Z,1.50
2018-10-07T13:19:25.655Z,1.57
2018-10-07T13:21:54.688Z,1.30
2018-10-07T13:24:23.491Z,1.70
2018-10-07T13:26:52.062Z,1.50
2018-10-07T13:29:20.545Z,1.40
2018-10-07T13:31:49.645Z,1.33
2018-10-07T13:34:18.110Z,1.30
2018-10-07T13:36:46.741Z,1.60
2018-10-07T13:39:15.225Z,1.40
2018-10-07T13:41:43.737Z,1.70
2018-10-07T13:44:12.408Z,1.50
2018-10-07T13:46:41.248Z,1.30
2018-10-07T13:49:09.799Z,1.53
2018-10-07T13:51:38.315Z,1.40
2018-10-07T13:54:07.189Z,1.60
2018-10-07T13:56:36.015Z,1.40
2018-10-07T13:59:04.498Z,1.40
2018-10-07T14:01:35.465Z,1.63
2018-10-07T14:04:04.308Z,1.63
2018-10-07T14:06:41.965Z,1.50
2018-10-07T14:09:15.899Z,1.47
2018-10-07T14:11:44.472Z,1.87
2018-10-07T14:14:13.195Z,1.60
2018-10-07T14:16:41.975Z,1.50
2018-10-07T14:19:10.683Z,1.80
2018-10-07T14:21:39.277Z,1.50
2018-10-07T14:24:07.891Z,1.60
2018-10-07T14:26:36.487Z,1.67
2018-10-07T14:29:05.211Z,1.60
2018-10-07T14:31:33.806Z,1.50
2018-10-07T14:34:02.489Z,1.63
2018-10-07T14:36:30.922Z,1.70
2018-10-07T14:38:59.395Z,2.30
2018-10-07T14:41:27.893Z,2.03
2018-10-07T14:43:57.290Z,1.83
2018-10-07T14:46:25.765Z,1.50
2018-10-07T14:48:54.238Z,1.87
2018-10-07T14:51:22.690Z,1.43
2018-10-07T14:53:51.162Z,1.60
2018-10-07T14:56:19.596Z,1.70
2018-10-07T14:58:48.097Z,1.43
2018-10-07T15:01:16.608Z,1.37
2018-10-07T15:03:45.043Z,1.50
2018-10-07T15:06:13.533Z,1.50
2018-10-07T15:08:41.985Z,1.60
2018-10-07T15:11:10.480Z,1.87
2018-10-07T15:13:38.993Z,1.57
2018-10-07T15:16:07.519Z,1.90
2018-10-07T15:18:35.998Z,1.40
2018-10-07T15:21:04.511Z,1.70
2018-10-07T15:23:33.078Z,1.50
2018-10-07T15:26:01.641Z,1.80
2018-10-07T15:28:30.070Z,1.67
2018-10-07T15:30:58.552Z,1.67
2018-10-07T15:33:27.029Z,1.70
2018-10-07T15:35:55.497Z,1.50
2018-10-07T15:38:23.974Z,1.40
2018-10-07T15:40:52.430Z,1.70
2018-10-07T15:43:20.853Z,2.00
2018-10-07T15:45:49.310Z,1.63
2018-10-07T15:48:17.762Z,1.57
2018-10-07T15:50:46.199Z,1.67
2018-10-07T15:53:14.646Z,1.57
2018-10-07T15:55:43.209Z,1.70
2018-10-07T15:58:11.665Z,1.40
2018-10-07T16:00:40.124Z,1.40
2018-10-07T16:03:08.632Z,1.50
2018-10-07T16:05:37.107Z,1.60
2018-10-07T16:08:05.670Z,2.13
2018-10-07T16:10:34.173Z,1.77
2018-10-07T16:13:02.612Z,1.60
2018-10-07T16:15:31.079Z,1.50
2018-10-07T16:17:59.657Z,1.77
2018-10-07T16:20:28.155Z,1.70
2018-10-07T16:22:56.916Z,1.60
2018-10-07T16:25:25.500Z,1.90
2018-10-07T16:27:53.964Z,1.80
2018-10-07T16:30:22.402Z,1.70
2018-10-07T16:32:50.876Z,1.60
2018-10-07T16:35:20.068Z,1.90
2018-10-07T16:37:48.659Z,2.10
2018-10-07T16:40:17.144Z,2.17
2018-10-07T16:42:45.612Z,1.87
2018-10-07T16:45:14.203Z,1.73
2018-10-07T16:47:42.718Z,1.90
2018-10-07T16:50:11.221Z,1.97
2018-10-07T16:52:39.699Z,2.00
2018-10-07T16:55:08.281Z,1.80
2018-10-07T16:57:36.864Z,2.30
2018-10-07T17:00:05.326Z,1.87
2018-10-07T17:02:33.772Z,2.20
2018-10-07T17:05:02.730Z,1.70
2018-10-07T17:07:31.233Z,1.70
2018-10-07T17:09:59.817Z,1.60
2018-10-07T17:12:28.375Z,1.60
2018-10-07T17:14:56.931Z,2.00
2018-10-07T17:17:25.428Z,2.03
2018-10-07T17:19:54.022Z,1.70
2018-10-07T17:22:22.737Z,1.80
2018-10-07T17:24:51.176Z,1.70
2018-10-07T17:27:19.645Z,1.90
2018-10-07T17:29:48.092Z,1.73
2018-10-07T17:32:16.583Z,1.93
2018-10-07T17:34:45.020Z,1.83
2018-10-07T17:37:13.461Z,1.97
2018-10-07T17:39:41.975Z,1.87
2018-10-07T17:42:10.479Z,1.80
2018-10-07T17:44:38.945Z,1.90
2018-10-07T17:47:07.458Z,2.23
2018-10-07T17:49:35.909Z,2.50
2018-10-07T17:52:04.950Z,2.37
2018-10-07T17:54:33.510Z,2.37
2018-10-07T17:57:01.947Z,2.33
2018-10-07T17:59:30.518Z,2.17
2018-10-07T18:01:59.019Z,2.37
2018-10-07T18:04:27.483Z,2.23
2018-10-07T18:06:55.971Z,2.70
2018-10-07T18:09:24.409Z,2.43
2018-10-07T18:11:53.397Z,2.27
2018-10-07T18:14:21.852Z,2.40
2018-10-07T18:16:52.136Z,2.23
2018-10-07T18:19:20.745Z,2.50
2018-10-07T18:21:49.347Z,1.97
2018-10-07T18:24:17.779Z,1.73
2018-10-07T18:26:46.237Z,2.27
2018-10-07T18:29:14.736Z,2.23
2018-10-07T18:31:43.805Z,2.50
2018-10-07T18:34:12.286Z,2.00
2018-10-07T18:36:40.793Z,2.93
2018-10-07T18:39:09.666Z,2.53
2018-10-07T18:41:39.171Z,2.70
2018-10-07T18:44:07.986Z,2.20
2018-10-07T18:46:36.551Z,2.50
2018-10-07T18:49:06.039Z,2.20
2018-10-07T18:51:34.493Z,2.30
2018-10-07T18:54:03.013Z,2.57
2018-10-07T18:56:31.679Z,2.90
2018-10-07T18:59:00.185Z,2.90
2018-10-07T19:01:28.693Z,2.10
2018-10-07T19:03:57.117Z,2.50
2018-10-07T19:06:25.546Z,2.47
2018-10-07T19:08:54.076Z,2.30
2018-10-07T19:11:22.535Z,2.80
2018-10-07T19:13:51.076Z,2.50
2018-10-07T19:16:19.588Z,2.77
2018-10-07T19:18:48.129Z,2.60
2018-10-07T19:21:16.628Z,2.50
2018-10-07T19:23:45.178Z,2.70
2018-10-07T19:26:13.798Z,2.73
2018-10-07T19:28:42.261Z,2.43
2018-10-07T19:31:10.739Z,2.67
2018-10-07T19:33:39.430Z,3.20
2018-10-07T19:36:08.015Z,3.10
2018-10-07T19:38:36.550Z,3.03
2018-10-07T19:41:05.049Z,2.80
2018-10-07T19:43:33.542Z,3.03
2018-10-07T19:46:02.018Z,2.73
2018-10-07T19:48:30.460Z,2.70
2018-10-07T19:50:58.891Z,3.30
2018-10-07T19:53:27.467Z,2.80
2018-10-07T19:55:56.042Z,3.00
2018-10-07T19:58:24.539Z,2.90
2018-10-07T20:00:53.152Z,3.07
2018-10-07T20:03:22.621Z,2.90
2018-10-07T20:05:51.101Z,3.37
2018-10-07T20:08:19.566Z,3.40
2018-10-07T20:10:48.058Z,3.30
2018-10-07T20:13:16.541Z,3.37
2018-10-07T20:15:45.061Z,3.47
2018-10-07T20:18:14.078Z,3.27
2018-10-07T20:20:42.841Z,4.00
2018-10-07T20:23:11.413Z,3.30
2018-10-07T20:25:39.977Z,3.40
2018-10-07T20:28:08.429Z,3.23
2018-10-07T20:30:37.098Z,3.63
2018-10-07T20:33:05.523Z,3.50
2018-10-07T20:35:33.949Z,4.10
2018-10-07T20:38:02.434Z,3.27
2018-10-07T20:40:30.939Z,3.80
2018-10-07T20:42:59.501Z,3.67
2018-10-07T20:45:28.057Z,3.70
2018-10-07T20:47:56.573Z,3.70
2018-10-07T20:50:25.339Z,4.03
2018-10-07T20:52:53.482Z,3.53
2018-10-07T20:55:22.081Z,3.33
2018-10-07T20:57:50.555Z,4.07
2018-10-07T21:00:19.172Z,3.20
2018-10-07T21:02:47.683Z,3.53
2018-10-07T21:05:16.075Z,2.93
2018-10-07T21:07:44.531Z,3.20
2018-10-07T21:10:12.972Z,3.03
2018-10-07T21:12:41.411Z,3.00
2018-10-07T21:15:09.873Z,2.97
2018-10-07T21:17:38.347Z,3.10
2018-10-07T21:20:06.919Z,3.10
2018-10-07T21:22:35.822Z,3.30
2018-10-07T21:25:05.315Z,3.10
2018-10-07T21:27:33.914Z,3.77
2018-10-07T21:30:02.751Z,3.30
2018-10-07T21:32:31.351Z,3.57
2018-10-07T21:34:59.807Z,4.17
2018-10-07T21:37:28.275Z,4.00
2018-10-07T21:39:56.741Z,4.00
2018-10-07T21:42:25.163Z,3.87
2018-10-07T21:44:53.599Z,3.80
2018-10-07T21:47:22.031Z,4.17
2018-10-07T21:49:50.481Z,3.70
2018-10-07T21:52:19.071Z,3.97
2018-10-07T21:54:47.497Z,3.87
2018-10-07T21:57:15.983Z,4.37
2018-10-07T21:59:44.440Z,4.43
2018-10-07T22:02:13.209Z,4.33
2018-10-07T22:04:41.769Z,4.27
2018-10-07T22:07:10.844Z,4.50
2018-10-07T22:09:39.293Z,4.70
2018-10-07T22:12:07.885Z,4.47
2018-10-07T22:14:36.423Z,4.80
2018-10-07T22:17:04.920Z,4.37
2018-10-07T22:19:33.336Z,3.93
2018-10-07T22:22:01.952Z,4.30
2018-10-07T22:24:31.198Z,4.57
2018-10-07T22:26:59.732Z,4.50
2018-10-07T22:29:28.142Z,5.03
2018-10-07T22:31:56.560Z,4.23
2018-10-07T22:34:25.055Z,4.10
2018-10-07T22:36:53.497Z,5.20
2018-10-07T22:39:21.999Z,5.30
2018-10-07T22:41:50.589Z,5.27
2018-10-07T22:44:19.262Z,5.23
2018-10-07T22:46:47.899Z,6.33
2018-10-07T22:49:16.469Z,5.77
2018-10-07T22:51:44.972Z,7.10
2018-10-07T22:54:13.420Z,6.30
2018-10-07T22:56:41.858Z,6.47
2018-10-07T22:59:10.366Z,6.00
2018-10-07T23:01:38.804Z,6.00
2018-10-07T23:04:07.233Z,5.40
2018-10-07T23:06:35.685Z,6.30
2018-10-07T23:09:06.985Z,5.80
2018-10-07T23:11:35.546Z,5.60
2018-10-07T23:14:04.201Z,5.70
2018-10-07T23:16:32.698Z,6.00
2018-10-07T23:19:01.205Z,6.50
2018-10-07T23:21:29.711Z,6.63
2018-10-07T23:23:58.147Z,7.00
2018-10-07T23:26:26.645Z,6.07
2018-10-07T23:28:55.068Z,6.03
2018-10-07T23:31:23.525Z,5.73
2018-10-07T23:33:52.118Z,5.50
2018-10-07T23:36:20.841Z,5.43
2018-10-07T23:38:49.269Z,5.67
2018-10-07T23:41:17.764Z,5.60
2018-10-07T23:43:46.532Z,5.77
2018-10-07T23:46:15.020Z,6.57
2018-10-07T23:48:43.534Z,5.70
2018-10-07T23:51:11.956Z,5.40
2018-10-07T23:53:40.537Z,5.43
2018-10-07T23:56:09.022Z,5.50
2018-10-07T23:58:37.444Z,5.23
